Time;durP1;ratioP1;P1;durP2;ratioP2;P2;SDS_P1;SDS_P2;PMS_P1;PMS_P2;Temp;Humidity;BMP_temperature;BMP_pressure;BME280_temperature;BME280_humidity;BME280_pressure;Samples;Min_cycle;Max_cycle;Signal;HPM_P1;HPM_P2
2021/07/14 00:00:09;;;;;;;2.27;1.60;;;15.00;99.90;;;;;;5003715;28;20963;-50
2021/07/14 00:02:36;;;;;;;2.50;1.80;;;15.10;99.90;;;;;;4995072;28;20454;-50
2021/07/14 00:05:05;;;;;;;1.80;1.70;;;15.20;99.90;;;;;;5005902;28;20450;-50
2021/07/14 00:07:32;;;;;;;2.03;1.77;;;15.30;99.90;;;;;;5014821;28;20504;-50
2021/07/14 00:09:59;;;;;;;3.30;2.13;;;15.30;99.90;;;;;;5006905;28;20446;-50
2021/07/14 00:12:29;;;;;;;1.80;1.70;;;15.40;99.90;;;;;;5010778;28;20453;-50
2021/07/14 00:17:01;;;;;;;1.90;1.70;;;15.40;99.90;;;;;;5014703;28;20458;-50
2021/07/14 00:23:22;;;;;;;2.33;1.77;;;15.40;99.90;;;;;;5014057;28;20432;-50
2021/07/14 00:25:49;;;;;;;3.00;2.10;;;15.40;99.90;;;;;;5013414;28;20555;-50
2021/07/14 00:28:17;;;;;;;3.43;1.80;;;15.40;99.90;;;;;;5013861;28;20442;-50
2021/07/14 00:30:49;;;;;;;1.87;1.77;;;15.40;99.90;;;;;;4997494;28;20446;-50
2021/07/14 00:33:17;;;;;;;2.40;2.20;;;15.50;99.90;;;;;;4994425;28;20481;-50
2021/07/14 00:35:44;;;;;;;2.73;1.80;;;15.50;99.90;;;;;;4994530;28;20880;-50
2021/07/14 00:38:12;;;;;;;2.10;1.90;;;15.50;99.90;;;;;;4995384;28;20490;-49
2021/07/14 00:40:39;;;;;;;5.70;2.67;;;15.50;99.90;;;;;;5012908;28;20458;-50
2021/07/14 00:43:06;;;;;;;1.90;1.50;;;15.40;99.90;;;;;;4993888;28;20525;-51
2021/07/14 00:45:34;;;;;;;2.33;1.70;;;15.50;99.90;;;;;;4994189;28;20478;-51
2021/07/14 00:48:02;;;;;;;4.10;2.10;;;15.50;99.90;;;;;;5000822;28;20442;-50
2021/07/14 00:50:30;;;;;;;3.03;2.53;;;15.40;99.90;;;;;;5004163;28;20457;-50
2021/07/14 00:52:58;;;;;;;2.40;2.20;;;15.40;99.90;;;;;;5013425;28;20453;-51
2021/07/14 00:55:25;;;;;;;2.70;2.50;;;15.40;99.90;;;;;;5013327;28;20535;-50
2021/07/14 00:57:52;;;;;;;3.27;2.43;;;15.40;99.90;;;;;;5013459;28;20485;-50
2021/07/14 01:00:19;;;;;;;2.23;2.03;;;15.50;99.90;;;;;;5012561;28;20527;-50
2021/07/14 01:02:47;;;;;;;4.43;2.57;;;15.50;99.90;;;;;;5013182;28;20454;-50
2021/07/14 01:05:17;;;;;;;2.73;2.53;;;15.50;99.90;;;;;;5013587;28;20524;-50
2021/07/14 01:07:53;;;;;;;3.07;2.77;;;15.60;99.90;;;;;;5013609;28;20862;-49
2021/07/14 01:10:24;;;;;;;3.20;2.90;;;15.60;99.90;;;;;;5012096;28;20975;-50
2021/07/14 01:12:59;;;;;;;3.40;2.70;;;15.60;99.90;;;;;;5013004;28;20485;-50
2021/07/14 01:15:30;;;;;;;4.47;2.73;;;15.60;99.90;;;;;;5013486;28;20465;-50
2021/07/14 01:18:01;;;;;;;3.20;2.50;;;15.50;99.90;;;;;;5013328;28;20555;-50
2021/07/14 01:20:45;;;;;;;4.47;2.50;;;15.50;99.90;;;;;;5012126;28;20524;-50
2021/07/14 01:23:19;;;;;;;2.47;2.27;;;15.60;99.90;;;;;;5008548;28;20457;-50
2021/07/14 01:26:06;;;;;;;2.03;1.93;;;15.60;99.90;;;;;;5012727;28;20472;-49
2021/07/14 01:28:37;;;;;;;2.50;2.30;;;15.60;99.90;;;;;;5006979;28;20511;-50
2021/07/14 01:31:05;;;;;;;3.60;2.57;;;15.60;99.90;;;;;;5000898;28;20445;-50
2021/07/14 01:33:34;;;;;;;3.13;2.83;;;15.50;99.90;;;;;;5012705;28;20495;-51
2021/07/14 01:36:06;;;;;;;3.20;2.60;;;15.50;99.90;;;;;;5010354;28;20551;-51
2021/07/14 01:38:35;;;;;;;3.73;2.40;;;15.50;99.90;;;;;;5012588;28;20516;-50
2021/07/14 01:41:04;;;;;;;2.87;2.60;;;15.50;99.90;;;;;;5011728;28;20545;-50
2021/07/14 01:43:38;;;;;;;4.77;3.70;;;15.50;99.90;;;;;;5012234;28;20808;-50
2021/07/14 01:46:07;;;;;;;6.00;3.67;;;15.60;99.90;;;;;;5012598;28;20523;-50
2021/07/14 01:48:37;;;;;;;4.53;3.40;;;15.50;99.90;;;;;;5012652;28;20927;-50
2021/07/14 01:51:04;;;;;;;3.40;2.80;;;15.40;99.90;;;;;;5002025;28;20481;-50
2021/07/14 01:53:33;;;;;;;5.87;3.03;;;15.40;99.90;;;;;;5012494;28;21140;-51
2021/07/14 01:56:02;;;;;;;2.80;2.60;;;15.40;99.90;;;;;;5012233;28;20477;-50
2021/07/14 01:58:31;;;;;;;3.27;2.40;;;15.40;99.90;;;;;;5012643;28;20481;-50
2021/07/14 02:01:00;;;;;;;2.47;2.27;;;15.50;99.90;;;;;;5002650;28;20449;-50
2021/07/14 02:03:42;;;;;;;3.30;2.60;;;15.40;99.90;;;;;;5012179;28;21017;-50
2021/07/14 02:06:11;;;;;;;2.53;2.33;;;15.40;99.90;;;;;;5011893;28;20475;-49
2021/07/14 02:08:40;;;;;;;2.40;2.20;;;15.30;99.90;;;;;;5012184;28;20893;-51
2021/07/14 02:11:07;;;;;;;2.20;2.00;;;15.40;99.90;;;;;;5010747;28;20477;-50
2021/07/14 02:13:38;;;;;;;2.73;2.43;;;15.50;99.90;;;;;;5011015;28;20508;-49
2021/07/14 02:16:08;;;;;;;2.50;2.13;;;15.50;99.90;;;;;;5011939;28;20505;-50
2021/07/14 02:18:41;;;;;;;2.00;1.90;;;15.60;99.90;;;;;;5012320;28;20539;-50
2021/07/14 02:21:08;;;;;;;1.80;1.70;;;15.60;99.90;;;;;;5006906;28;20445;-50
2021/07/14 02:23:37;;;;;;;4.70;2.20;;;15.60;99.90;;;;;;5011532;28;20504;-50
2021/07/14 02:26:05;;;;;;;1.70;1.60;;;15.60;99.90;;;;;;5011913;28;20466;-51
2021/07/14 02:28:33;;;;;;;2.20;2.10;;;15.70;99.90;;;;;;5012029;28;20453;-50
2021/07/14 02:31:00;;;;;;;2.63;2.10;;;15.60;99.90;;;;;;5010813;28;20499;-50
2021/07/14 02:33:29;;;;;;;2.10;1.90;;;15.60;99.90;;;;;;5011925;28;20453;-50
2021/07/14 02:36:01;;;;;;;2.70;1.80;;;15.50;99.90;;;;;;5011918;28;20469;-50
2021/07/14 02:38:32;;;;;;;4.67;1.97;;;15.50;99.90;;;;;;5011792;28;20481;-50
2021/07/14 02:41:07;;;;;;;2.40;2.20;;;15.50;99.90;;;;;;5001889;28;20453;-51
2021/07/14 02:43:36;;;;;;;2.30;2.10;;;15.50;99.90;;;;;;5011674;28;20444;-50
2021/07/14 02:46:13;;;;;;;5.43;2.40;;;15.20;99.90;;;;;;5010551;28;20477;-50
2021/07/14 02:48:45;;;;;;;4.83;1.93;;;15.20;99.90;;;;;;5014441;28;20958;-51
2021/07/14 02:51:15;;;;;;;2.50;2.30;;;15.30;99.90;;;;;;5015053;28;20454;-50
2021/07/14 02:53:47;;;;;;;3.10;2.20;;;15.20;99.90;;;;;;5015651;28;20457;-50
2021/07/14 02:56:19;;;;;;;4.33;2.20;;;15.30;99.90;;;;;;5015802;28;21043;-51
2021/07/14 02:58:52;;;;;;;3.13;1.80;;;15.40;99.90;;;;;;5015565;28;20489;-50
2021/07/14 03:01:21;;;;;;;3.43;2.30;;;15.50;99.90;;;;;;5015233;28;20449;-50
2021/07/14 03:03:52;;;;;;;2.53;2.27;;;15.40;99.90;;;;;;5015198;28;20485;-50
2021/07/14 03:06:19;;;;;;;1.90;1.80;;;15.40;99.90;;;;;;5015710;28;20523;-50
2021/07/14 03:08:49;;;;;;;1.83;1.73;;;15.40;99.90;;;;;;5013709;28;20446;-49
2021/07/14 03:11:18;;;;;;;3.13;1.60;;;15.40;99.90;;;;;;4997802;28;20504;-50
2021/07/14 03:13:46;;;;;;;2.03;1.40;;;15.40;99.90;;;;;;4995806;28;20952;-51
2021/07/14 03:16:15;;;;;;;1.60;1.47;;;15.20;99.90;;;;;;4995825;28;20979;-50
2021/07/14 03:18:46;;;;;;;1.20;1.10;;;15.30;99.90;;;;;;5005836;28;20480;-50
2021/07/14 03:21:16;;;;;;;1.73;1.63;;;15.30;99.90;;;;;;4999700;28;20462;-50
2021/07/14 03:23:43;;;;;;;2.50;2.30;;;15.50;99.90;;;;;;5013665;28;20504;-49
2021/07/14 03:26:11;;;;;;;1.80;1.70;;;15.50;99.90;;;;;;5008776;28;20528;-50
2021/07/14 03:28:40;;;;;;;1.97;1.77;;;15.50;99.90;;;;;;5005072;28;20487;-51
2021/07/14 03:31:09;;;;;;;3.67;1.77;;;15.60;99.90;;;;;;5014496;28;20455;-50
2021/07/14 03:33:36;;;;;;;2.53;1.93;;;15.60;99.90;;;;;;5015358;28;20572;-51
2021/07/14 03:36:05;;;;;;;2.30;2.10;;;15.60;99.90;;;;;;5015124;28;20475;-49
2021/07/14 03:38:36;;;;;;;2.10;2.00;;;15.60;99.90;;;;;;5014653;28;20543;-51
2021/07/14 03:41:04;;;;;;;2.20;2.10;;;15.50;99.90;;;;;;5000987;28;20463;-50
2021/07/14 03:43:32;;;;;;;4.03;2.77;;;15.50;99.90;;;;;;5011228;28;20453;-50
2021/07/14 03:46:03;;;;;;;3.83;2.30;;;15.40;99.90;;;;;;5010974;28;20473;-50
2021/07/14 03:48:31;;;;;;;3.10;2.53;;;15.40;99.90;;;;;;5006235;28;20445;-50
2021/07/14 03:51:01;;;;;;;7.00;3.10;;;15.30;99.90;;;;;;5001697;28;20458;-50
2021/07/14 03:53:29;;;;;;;4.80;2.97;;;15.20;99.90;;;;;;5013589;28;21027;-50
2021/07/14 03:55:58;;;;;;;3.40;3.00;;;15.10;99.90;;;;;;5014675;28;20485;-50
2021/07/14 03:58:27;;;;;;;2.50;2.30;;;15.00;99.90;;;;;;5014258;28;20547;-50
2021/07/14 04:00:55;;;;;;;3.10;2.60;;;14.90;99.90;;;;;;5039291;22;20823;-51
2021/07/14 04:03:25;;;;;;;4.10;2.40;;;14.80;99.90;;;;;;5045113;28;20460;-52
2021/07/14 04:06:01;;;;;;;2.60;2.40;;;14.90;99.90;;;;;;5053421;28;20459;-52
2021/07/14 04:08:33;;;;;;;4.77;2.80;;;15.00;99.90;;;;;;5052403;28;20450;-51
2021/07/14 04:11:01;;;;;;;2.13;1.97;;;14.90;99.90;;;;;;5052045;28;20893;-52
2021/07/14 04:13:29;;;;;;;2.40;2.20;;;14.90;99.90;;;;;;5052973;28;20875;-52
2021/07/14 04:15:56;;;;;;;6.80;2.10;;;14.80;99.90;;;;;;5052928;28;20777;-52
2021/07/14 04:18:22;;;;;;;3.57;2.10;;;14.80;99.90;;;;;;5053170;28;21054;-52
2021/07/14 04:20:50;;;;;;;2.90;2.33;;;14.80;99.90;;;;;;5053197;28;20459;-52
2021/07/14 04:23:17;;;;;;;3.33;2.23;;;14.70;99.90;;;;;;5053118;28;20534;-52
2021/07/14 04:25:44;;;;;;;3.10;2.30;;;14.80;99.90;;;;;;5053071;28;20509;-52
2021/07/14 04:28:12;;;;;;;2.33;2.13;;;14.70;99.90;;;;;;5052980;28;20448;-52
2021/07/14 04:30:40;;;;;;;2.10;2.00;;;14.70;99.90;;;;;;5052780;28;20513;-52
2021/07/14 04:33:07;;;;;;;2.50;2.30;;;14.70;99.90;;;;;;5037198;28;20471;-52
2021/07/14 04:35:35;;;;;;;2.73;2.00;;;14.70;99.90;;;;;;5035613;28;20490;-52
2021/07/14 04:38:02;;;;;;;2.80;2.10;;;14.60;99.90;;;;;;5052699;28;20989;-52
2021/07/14 04:40:29;;;;;;;1.77;1.67;;;14.60;99.90;;;;;;5052864;28;20455;-52
2021/07/14 04:42:56;;;;;;;2.37;1.83;;;14.60;99.90;;;;;;5053043;28;20476;-52
2021/07/14 04:45:25;;;;;;;3.37;2.20;;;14.60;99.90;;;;;;5053074;28;20448;-52
2021/07/14 04:47:52;;;;;;;2.47;2.27;;;14.70;99.90;;;;;;5051554;28;20961;-52
2021/07/14 04:50:19;;;;;;;3.00;2.13;;;14.80;99.90;;;;;;5042998;28;20460;-52
2021/07/14 04:52:46;;;;;;;3.07;2.13;;;14.80;99.90;;;;;;5044029;28;20533;-52
2021/07/14 04:55:13;;;;;;;2.17;1.97;;;14.80;99.90;;;;;;5052255;28;20459;-52
2021/07/14 04:57:40;;;;;;;2.77;2.30;;;14.90;99.90;;;;;;5050075;28;20941;-52
2021/07/14 05:00:09;;;;;;;2.53;1.90;;;14.80;99.90;;;;;;5051974;28;20452;-52
2021/07/14 05:02:37;;;;;;;4.20;2.27;;;14.80;99.90;;;;;;5051872;28;20483;-52
2021/07/14 05:05:05;;;;;;;5.70;2.50;;;14.80;99.90;;;;;;5052305;28;20529;-52
2021/07/14 05:07:32;;;;;;;2.47;2.13;;;14.80;99.90;;;;;;5052088;28;20455;-52
2021/07/14 05:09:59;;;;;;;2.60;2.40;;;14.80;99.90;;;;;;5051459;28;20509;-52
2021/07/14 05:12:26;;;;;;;2.10;1.90;;;14.80;99.90;;;;;;5051857;28;20537;-52
2021/07/14 05:14:53;;;;;;;3.07;2.20;;;14.80;99.90;;;;;;5052223;28;20458;-51
2021/07/14 05:17:20;;;;;;;3.80;2.30;;;14.90;99.90;;;;;;5053487;28;20531;-52
2021/07/14 05:19:48;;;;;;;3.10;2.30;;;14.80;99.90;;;;;;5052467;28;20549;-52
2021/07/14 05:22:15;;;;;;;7.30;2.50;;;14.80;99.90;;;;;;5037295;28;20475;-52
2021/07/14 05:24:43;;;;;;;2.33;2.13;;;14.80;99.90;;;;;;5047082;28;20958;-52
2021/07/14 05:27:10;;;;;;;5.33;2.33;;;14.90;99.90;;;;;;5052618;28;20505;-53
2021/07/14 05:29:37;;;;;;;3.47;2.00;;;14.90;99.90;;;;;;5062315;28;20447;-52
2021/07/14 05:32:07;;;;;;;2.90;2.53;;;15.00;99.90;;;;;;5051497;28;20472;-52
2021/07/14 05:34:34;;;;;;;3.23;2.50;;;14.90;99.90;;;;;;5055508;28;20505;-52
2021/07/14 05:37:02;;;;;;;2.60;2.23;;;14.90;99.90;;;;;;5052062;28;20521;-53
2021/07/14 05:39:30;;;;;;;2.90;2.20;;;14.90;99.90;;;;;;5055482;28;20537;-53
2021/07/14 05:41:57;;;;;;;3.10;2.33;;;14.90;99.90;;;;;;5051976;28;20554;-54
2021/07/14 05:44:24;;;;;;;4.57;2.50;;;15.00;99.90;;;;;;5051475;28;20455;-52
2021/07/14 05:46:54;;;;;;;5.60;2.40;;;15.00;99.90;;;;;;5058953;28;20452;-52
2021/07/14 05:49:21;;;;;;;2.13;2.03;;;15.00;99.90;;;;;;5046968;28;20527;-52
2021/07/14 05:51:48;;;;;;;2.20;1.97;;;15.10;99.90;;;;;;5046448;28;20845;-52
2021/07/14 05:54:17;;;;;;;4.60;2.50;;;15.20;99.90;;;;;;5050320;28;20889;-52
2021/07/14 05:56:44;;;;;;;1.70;1.60;;;15.30;99.90;;;;;;5050007;28;20977;-52
2021/07/14 05:59:11;;;;;;;2.03;1.83;;;15.30;99.90;;;;;;5051605;28;20498;-53
2021/07/14 06:01:38;;;;;;;2.97;1.70;;;15.50;99.90;;;;;;5051154;28;20989;-52
2021/07/14 06:04:05;;;;;;;2.00;1.90;;;15.60;99.90;;;;;;5050342;28;20801;-52
2021/07/14 06:06:32;;;;;;;3.53;2.60;;;15.70;99.90;;;;;;5034646;28;20456;-52
2021/07/14 06:08:59;;;;;;;1.77;1.67;;;15.80;99.90;;;;;;5042727;28;20535;-52
2021/07/14 06:11:29;;;;;;;3.17;1.73;;;15.90;99.90;;;;;;5050881;28;20522;-52
2021/07/14 06:13:56;;;;;;;1.67;1.57;;;16.00;99.90;;;;;;5049686;28;20527;-52
2021/07/14 06:16:23;;;;;;;1.63;1.53;;;16.20;99.90;;;;;;5049887;28;20452;-52
2021/07/14 06:18:50;;;;;;;2.10;1.60;;;16.20;99.90;;;;;;5050134;28;20862;-52
2021/07/14 06:21:17;;;;;;;1.40;1.30;;;16.40;99.90;;;;;;5048953;28;20538;-52
2021/07/14 06:23:44;;;;;;;2.37;1.67;;;16.60;99.90;;;;;;5061188;28;20505;-52
2021/07/14 06:26:12;;;;;;;4.67;1.50;;;16.60;99.90;;;;;;5071699;28;20447;-52
2021/07/14 06:28:41;;;;;;;2.00;1.30;;;16.70;99.90;;;;;;5071345;28;20561;-53
2021/07/14 06:31:08;;;;;;;2.03;1.70;;;16.80;99.90;;;;;;5052224;28;20485;-52
2021/07/14 06:33:37;;;;;;;2.83;1.50;;;16.90;99.90;;;;;;5050331;28;20513;-52
2021/07/14 06:36:05;;;;;;;2.17;1.33;;;16.80;99.90;;;;;;5048848;28;20459;-52
2021/07/14 06:38:33;;;;;;;1.37;1.10;;;16.80;99.90;;;;;;5051279;28;20487;-52
2021/07/14 06:41:00;;;;;;;1.67;1.10;;;16.80;99.90;;;;;;5050819;28;20637;-52
2021/07/14 06:43:41;;;;;;;1.00;0.90;;;16.90;99.90;;;;;;5050581;28;20452;-52
2021/07/14 06:46:10;;;;;;;1.40;1.13;;;16.90;99.90;;;;;;5050812;28;20456;-53
2021/07/14 06:48:38;;;;;;;0.90;0.90;;;17.00;99.90;;;;;;5050518;28;20873;-52
2021/07/14 06:51:05;;;;;;;1.10;1.00;;;17.00;99.90;;;;;;5048271;28;20861;-53
2021/07/14 06:53:33;;;;;;;1.63;1.10;;;17.10;99.90;;;;;;5041407;28;20460;-54
2021/07/14 06:56:04;;;;;;;0.90;0.90;;;17.20;99.90;;;;;;5053162;28;20467;-54
2021/07/14 06:58:35;;;;;;;1.83;0.90;;;17.10;99.90;;;;;;5046600;28;20509;-54
2021/07/14 07:01:03;;;;;;;1.70;1.10;;;17.10;99.90;;;;;;5037027;28;20491;-53
2021/07/14 07:03:33;;;;;;;0.90;0.80;;;17.20;99.90;;;;;;5038836;28;20551;-52
2021/07/14 07:06:01;;;;;;;5.37;1.43;;;17.10;99.90;;;;;;5045899;28;20460;-53
2021/07/14 07:08:28;;;;;;;5.60;2.00;;;17.20;99.90;;;;;;5049701;28;20563;-53
2021/07/14 07:10:55;;;;;;;2.33;1.60;;;17.20;99.90;;;;;;5042860;28;20468;-54
2021/07/14 07:13:22;;;;;;;1.83;1.60;;;17.10;99.90;;;;;;5040964;28;20459;-54
2021/07/14 07:15:50;;;;;;;1.30;1.20;;;17.20;99.90;;;;;;5042686;28;20463;-54
2021/07/14 07:18:19;;;;;;;1.37;1.23;;;17.20;99.90;;;;;;5041331;28;20464;-54
2021/07/14 07:20:47;;;;;;;1.97;1.47;;;17.20;99.90;;;;;;5038007;28;20480;-53
2021/07/14 07:23:15;;;;;;;2.07;1.97;;;17.10;99.90;;;;;;5039074;28;20898;-53
2021/07/14 07:25:43;;;;;;;1.93;1.73;;;17.20;99.90;;;;;;5042103;28;20460;-53
2021/07/14 07:28:14;;;;;;;2.97;1.90;;;17.30;99.90;;;;;;5040436;28;20471;-54
2021/07/14 07:30:41;;;;;;;2.50;1.90;;;17.40;99.90;;;;;;5043728;28;20463;-53
2021/07/14 07:33:09;;;;;;;2.03;1.93;;;17.50;99.90;;;;;;5045815;28;20484;-54
2021/07/14 07:35:36;;;;;;;2.50;2.03;;;17.70;99.90;;;;;;5042015;28;20953;-53
2021/07/14 07:38:05;;;;;;;2.87;2.33;;;17.80;99.90;;;;;;5042055;28;20521;-52
2021/07/14 07:40:32;;;;;;;4.37;2.70;;;18.00;99.90;;;;;;5043901;28;21521;-54
2021/07/14 07:42:59;;;;;;;3.73;2.03;;;18.10;99.90;;;;;;5040910;28;20487;-53
2021/07/14 07:45:26;;;;;;;3.00;2.80;;;18.40;99.90;;;;;;5051959;28;20550;-53
2021/07/14 07:47:53;;;;;;;3.03;2.73;;;18.60;99.90;;;;;;5044672;28;20459;-54
2021/07/14 07:50:20;;;;;;;2.83;2.63;;;18.80;99.90;;;;;;5043062;28;20505;-52
2021/07/14 07:52:47;;;;;;;3.27;2.97;;;19.00;99.90;;;;;;5044953;28;20479;-52
2021/07/14 07:55:16;;;;;;;3.00;2.70;;;18.80;99.90;;;;;;5045361;28;20456;-53
2021/07/14 07:57:43;;;;;;;3.20;2.57;;;18.80;99.90;;;;;;5044962;28;20459;-54
2021/07/14 08:00:14;;;;;;;3.10;2.13;;;18.80;99.90;;;;;;5052738;28;20475;-54
2021/07/14 08:02:41;;;;;;;1.50;1.40;;;19.00;99.90;;;;;;5050608;28;20928;-55
2021/07/14 08:05:08;;;;;;;1.87;1.30;;;19.00;99.90;;;;;;5047429;28;20447;-51
2021/07/14 08:07:36;;;;;;;3.70;1.67;;;19.20;99.90;;;;;;5051311;28;20502;-52
2021/07/14 08:10:04;;;;;;;1.80;1.60;;;19.10;99.90;;;;;;5044779;28;20956;-54
2021/07/14 08:12:32;;;;;;;3.73;1.70;;;19.00;99.90;;;;;;5038241;28;20544;-52
2021/07/14 08:14:59;;;;;;;2.80;2.17;;;19.10;99.90;;;;;;5042031;28;20463;-52
2021/07/14 08:17:27;;;;;;;1.83;1.73;;;19.10;99.90;;;;;;5046024;28;20556;-52
2021/07/14 08:19:54;;;;;;;2.10;2.00;;;19.00;99.90;;;;;;5042354;28;20494;-52
2021/07/14 08:22:21;;;;;;;3.23;2.07;;;19.20;99.90;;;;;;5044188;28;20483;-52
2021/07/14 08:24:48;;;;;;;3.17;1.60;;;19.10;99.90;;;;;;5041649;28;20469;-52
2021/07/14 08:27:15;;;;;;;2.80;1.87;;;19.30;99.90;;;;;;5044119;28;20595;-52
2021/07/14 08:29:44;;;;;;;1.80;1.70;;;19.40;99.90;;;;;;5043631;28;20455;-52
2021/07/14 08:32:11;;;;;;;1.90;1.80;;;19.60;99.90;;;;;;5042759;28;20488;-52
2021/07/14 08:34:38;;;;;;;2.23;2.03;;;19.20;99.90;;;;;;5043929;28;21035;-52
2021/07/14 08:37:06;;;;;;;2.07;1.97;;;19.50;99.90;;;;;;5043807;28;20509;-53
2021/07/14 08:39:33;;;;;;;3.60;2.57;;;19.40;99.90;;;;;;5044122;28;21055;-52
2021/07/14 08:42:02;;;;;;;2.47;1.83;;;19.30;99.90;;;;;;5052298;28;20472;-52
2021/07/14 08:44:29;;;;;;;2.90;1.90;;;19.20;99.90;;;;;;5040703;28;20960;-52
2021/07/14 08:47:01;;;;;;;4.30;2.03;;;19.30;99.90;;;;;;5043136;28;20463;-51
2021/07/14 08:49:29;;;;;;;2.27;2.07;;;19.20;99.90;;;;;;5052352;28;20460;-51
2021/07/14 08:51:59;;;;;;;3.30;2.17;;;19.10;99.90;;;;;;5048404;28;20495;-52
2021/07/14 08:54:26;;;;;;;3.40;2.03;;;19.10;99.90;;;;;;5052357;28;20513;-52
2021/07/14 08:56:53;;;;;;;3.50;2.20;;;19.10;99.90;;;;;;5044739;28;20469;-52
2021/07/14 08:59:21;;;;;;;2.40;2.20;;;19.30;99.90;;;;;;5046204;28;20479;-51
2021/07/14 09:01:48;;;;;;;2.60;2.40;;;19.50;99.90;;;;;;5052019;28;20533;-52
2021/07/14 09:04:17;;;;;;;2.27;2.10;;;19.30;99.90;;;;;;5052147;28;20498;-52
2021/07/14 09:06:44;;;;;;;2.77;2.57;;;18.90;99.90;;;;;;5044522;28;20457;-53
2021/07/14 09:09:11;;;;;;;3.33;1.90;;;19.10;99.90;;;;;;5032904;28;20506;-53
2021/07/14 09:11:53;;;;;;;4.50;2.20;;;19.10;99.90;;;;;;5032604;28;20530;-52
2021/07/14 09:14:28;;;;;;;2.93;2.50;;;19.50;99.90;;;;;;5032766;28;20824;-52
2021/07/14 09:16:56;;;;;;;2.73;2.53;;;20.00;99.90;;;;;;5044079;28;20459;-54
2021/07/14 09:19:29;;;;;;;2.20;2.00;;;20.70;99.90;;;;;;5052528;28;20556;-52
2021/07/14 09:21:58;;;;;;;2.90;2.47;;;21.40;99.90;;;;;;5050627;28;20472;-52
2021/07/14 09:24:28;;;;;;;2.90;2.33;;;21.10;99.90;;;;;;5052201;28;20448;-52
2021/07/14 09:26:58;;;;;;;2.67;2.47;;;20.80;99.90;;;;;;5045905;28;20453;-52
2021/07/14 09:29:25;;;;;;;3.20;2.50;;;20.60;99.90;;;;;;5032095;28;20954;-52
2021/07/14 09:31:55;;;;;;;3.00;2.63;;;20.30;99.90;;;;;;5031959;28;20522;-52
2021/07/14 09:34:29;;;;;;;3.23;2.93;;;19.80;99.90;;;;;;5041909;28;20810;-52
2021/07/14 09:37:01;;;;;;;2.90;2.70;;;19.70;99.90;;;;;;5051474;28;20493;-52
2021/07/14 09:39:33;;;;;;;2.77;2.57;;;19.70;99.90;;;;;;5052040;28;20440;-52
2021/07/14 09:42:02;;;;;;;4.80;3.93;;;19.60;99.90;;;;;;5051524;28;20472;-51
2021/07/14 09:44:29;;;;;;;2.80;2.60;;;19.60;99.90;;;;;;5051929;28;20448;-51
2021/07/14 09:47:13;;;;;;;2.60;2.37;;;19.70;99.90;;;;;;5045597;28;20456;-52
2021/07/14 09:49:41;;;;;;;3.47;2.40;;;19.70;99.90;;;;;;5037762;28;20832;-51
2021/07/14 09:52:14;;;;;;;3.40;2.60;;;19.80;99.90;;;;;;5047355;28;20464;-52
2021/07/14 09:54:41;;;;;;;2.33;2.00;;;19.70;99.90;;;;;;5051637;28;21217;-52
2021/07/14 09:57:11;;;;;;;4.90;4.07;;;19.80;99.90;;;;;;5050984;28;20942;-52
2021/07/14 09:59:37;;;;;;;6.77;6.10;;;19.70;99.90;;;;;;5051528;28;20927;-54
2021/07/14 10:02:08;;;;;;;13.50;5.83;;;19.50;99.90;;;;;;5050732;28;20992;-54
2021/07/14 10:04:36;;;;;;;3.00;2.70;;;19.50;99.90;;;;;;5051347;28;20451;-54
2021/07/14 10:07:11;;;;;;;3.60;2.43;;;19.70;99.90;;;;;;5051195;28;20511;-54
2021/07/14 10:09:39;;;;;;;4.40;2.00;;;19.80;99.90;;;;;;5051337;28;20439;-54
2021/07/14 10:12:28;;;;;;;6.37;5.30;;;19.90;99.90;;;;;;5050875;28;20533;-54
2021/07/14 10:14:56;;;;;;;3.40;3.20;;;19.60;99.90;;;;;;5051946;28;20448;-53
2021/07/14 10:17:37;;;;;;;4.37;2.80;;;19.10;99.90;;;;;;5056684;22;20509;-51
2021/07/14 10:20:30;;;;;;;4.40;4.00;;;18.50;99.90;;;;;;5031465;28;21079;-50
2021/07/14 10:23:00;;;;;;;2.80;2.57;;;17.90;99.90;;;;;;5030828;28;20451;-51
2021/07/14 10:25:28;;;;;;;3.43;2.70;;;17.50;99.90;;;;;;5030410;28;20441;-51
2021/07/14 10:27:58;;;;;;;3.70;2.90;;;17.40;99.90;;;;;;5031144;28;20449;-50
2021/07/14 10:30:27;;;;;;;3.40;3.10;;;17.30;99.90;;;;;;5032380;28;20448;-50
2021/07/14 10:32:55;;;;;;;2.60;2.40;;;17.20;99.90;;;;;;5031147;28;20452;-49
2021/07/14 10:35:23;;;;;;;7.43;5.43;;;17.20;99.90;;;;;;5031596;28;20445;-50
2021/07/14 10:37:52;;;;;;;42.77;28.23;;;17.10;99.90;;;;;;5031292;28;20445;-49
2021/07/14 10:40:22;;;;;;;12.37;9.30;;;17.00;99.90;;;;;;5031354;28;20538;-49
2021/07/14 10:42:50;;;;;;;6.10;4.97;;;16.70;99.90;;;;;;5031342;28;20502;-50
2021/07/14 10:45:18;;;;;;;3.73;3.20;;;16.40;99.90;;;;;;5031006;28;20842;-51
2021/07/14 10:47:46;;;;;;;8.80;4.00;;;16.40;99.90;;;;;;5031315;28;20826;-50
2021/07/14 10:50:14;;;;;;;3.90;3.53;;;16.70;99.90;;;;;;5030784;28;20475;-50
2021/07/14 10:52:42;;;;;;;6.10;4.07;;;16.80;99.90;;;;;;5026037;28;20587;-50
2021/07/14 10:55:11;;;;;;;5.73;3.80;;;16.70;99.90;;;;;;5031060;28;20510;-51
2021/07/14 10:57:40;;;;;;;5.30;3.97;;;16.70;99.90;;;;;;5030622;28;20475;-51
2021/07/14 11:00:09;;;;;;;4.83;3.33;;;16.70;99.90;;;;;;5030821;28;20476;-51
2021/07/14 11:02:42;;;;;;;4.97;3.73;;;16.80;99.90;;;;;;5030789;28;20457;-50
2021/07/14 11:05:10;;;;;;;5.00;4.27;;;16.90;99.90;;;;;;5031117;28;20448;-50
2021/07/14 11:07:42;;;;;;;4.57;3.80;;;16.90;99.90;;;;;;5030601;28;20477;-50
2021/07/14 11:10:34;;;;;;;5.83;4.23;;;16.80;99.90;;;;;;5034670;28;20452;-49
2021/07/14 11:13:28;;;;;;;4.20;3.53;;;17.00;99.90;;;;;;5035020;28;20460;-51
2021/07/14 11:15:55;;;;;;;3.93;3.40;;;16.90;99.90;;;;;;5034373;28;20476;-50
2021/07/14 11:18:40;;;;;;;4.13;3.37;;;16.90;99.90;;;;;;5034779;28;20571;-51
2021/07/14 11:21:07;;;;;;;7.10;4.20;;;17.10;99.90;;;;;;5033657;28;20484;-50
2021/07/14 11:23:34;;;;;;;6.13;4.60;;;17.00;99.90;;;;;;5034160;28;20871;-52
2021/07/14 11:26:03;;;;;;;11.30;4.30;;;16.80;99.90;;;;;;5034064;28;21017;-51
2021/07/14 11:28:33;;;;;;;6.90;4.40;;;16.80;99.90;;;;;;5032873;28;20448;-52
2021/07/14 11:31:10;;;;;;;12.57;5.63;;;16.70;99.90;;;;;;5034811;28;20539;-53
2021/07/14 11:33:39;;;;;;;6.60;4.60;;;16.60;99.90;;;;;;5033866;28;20460;-53
2021/07/14 11:36:08;;;;;;;5.63;4.80;;;16.50;99.90;;;;;;5033606;28;20465;-53
2021/07/14 11:38:50;;;;;;;7.27;5.57;;;16.50;99.90;;;;;;5034707;28;20456;-54
2021/07/14 11:41:23;;;;;;;5.53;4.73;;;16.50;99.90;;;;;;5034340;28;20484;-53
2021/07/14 11:43:54;;;;;;;4.90;4.33;;;16.30;99.90;;;;;;5033275;28;20475;-53
2021/07/14 11:46:26;;;;;;;6.00;3.90;;;16.20;99.90;;;;;;5034391;28;20476;-54
2021/07/14 11:49:02;;;;;;;4.90;4.00;;;16.30;99.90;;;;;;5034581;28;20503;-54
2021/07/14 11:51:33;;;;;;;4.80;4.30;;;16.30;99.90;;;;;;5034299;28;20444;-54
2021/07/14 11:54:01;;;;;;;9.50;4.40;;;16.30;99.90;;;;;;5034269;28;20961;-54
2021/07/14 11:56:45;;;;;;;4.63;4.17;;;16.30;99.90;;;;;;5032990;28;20522;-54
2021/07/14 11:59:20;;;;;;;4.63;4.23;;;16.40;99.90;;;;;;5034268;28;20480;-54
2021/07/14 12:02:06;;;;;;;5.60;4.87;;;16.50;99.90;;;;;;5034020;28;20579;-54
2021/07/14 12:04:41;;;;;;;6.20;5.17;;;16.70;99.90;;;;;;5034217;28;20539;-54
2021/07/14 12:07:11;;;;;;;4.67;4.20;;;16.90;99.90;;;;;;5033930;28;20479;-54
2021/07/14 12:09:44;;;;;;;5.30;4.10;;;17.10;99.90;;;;;;5033738;28;20539;-53
2021/07/14 12:12:17;;;;;;;4.40;4.00;;;17.40;99.90;;;;;;5033612;28;20448;-53
2021/07/14 12:14:47;;;;;;;3.93;3.33;;;17.60;99.90;;;;;;5034210;28;20449;-53
2021/07/14 12:17:17;;;;;;;6.30;4.70;;;17.80;99.90;;;;;;5033850;28;20488;-53
2021/07/14 12:19:45;;;;;;;6.10;4.10;;;18.00;99.90;;;;;;5034053;28;20452;-53
2021/07/14 12:22:15;;;;;;;6.77;4.00;;;18.10;99.90;;;;;;5033073;28;20523;-53
2021/07/14 12:24:46;;;;;;;4.03;3.40;;;18.40;99.90;;;;;;5033542;28;20462;-53
2021/07/14 12:27:16;;;;;;;3.47;3.17;;;18.60;99.90;;;;;;5033097;28;20541;-53
2021/07/14 12:29:52;;;;;;;2.90;2.70;;;18.80;99.90;;;;;;5033396;28;20456;-52
2021/07/14 12:32:36;;;;;;;2.90;2.60;;;19.00;99.90;;;;;;5033811;28;20452;-53
2021/07/14 12:35:07;;;;;;;1.83;1.73;;;19.30;99.90;;;;;;5033598;28;20440;-52
2021/07/14 12:37:35;;;;;;;2.40;2.30;;;19.50;99.90;;;;;;5013986;28;20469;-53
2021/07/14 12:40:03;;;;;;;2.20;2.03;;;19.60;99.90;;;;;;5014188;28;20446;-53
2021/07/14 12:42:30;;;;;;;2.70;1.97;;;19.60;99.90;;;;;;5013689;28;20489;-53
2021/07/14 12:44:58;;;;;;;3.70;2.40;;;19.60;99.90;;;;;;5013878;28;20947;-53
2021/07/14 12:47:26;;;;;;;2.80;2.57;;;19.70;99.90;;;;;;5032598;28;20915;-52
2021/07/14 12:49:54;;;;;;;3.40;3.10;;;19.60;99.90;;;;;;5033487;28;20827;-53
2021/07/14 12:52:23;;;;;;;2.40;2.20;;;19.60;99.90;;;;;;5028952;28;20449;-53
2021/07/14 12:54:55;;;;;;;2.20;2.10;;;19.70;99.90;;;;;;5013876;28;20533;-53
2021/07/14 12:57:25;;;;;;;3.13;2.83;;;19.80;99.90;;;;;;5032207;28;20507;-52
2021/07/14 12:59:54;;;;;;;3.07;2.73;;;19.90;99.90;;;;;;5033444;28;20530;-52
2021/07/14 13:02:24;;;;;;;3.47;3.17;;;19.80;99.90;;;;;;5032944;28;20480;-52